Time;durP1;ratioP1;P1;durP2;ratioP2;P2;SDS_P1;SDS_P2;PMS_P1;PMS_P2;Temp;Humidity;BMP_temperature;BMP_pressure;BME280_temperature;BME280_humidity;BME280_pressure;Samples;Min_cycle;Max_cycle;Signal;HPM_P1;HPM_P2
2021/12/29 00:01:25;;;;;;;12.35;5.13;;;;;;;7.54;96.24;98606.25;4916746;29;20250;-76
2021/12/29 00:03:50;;;;;;;14.93;5.97;;;;;;;7.55;95.93;98607.88;4899947;29;20044;-75
2021/12/29 00:06:16;;;;;;;11.60;5.22;;;;;;;7.54;95.91;98611.63;4916787;29;20043;-76
2021/12/29 00:08:41;;;;;;;13.48;6.13;;;;;;;7.56;96.24;98609.53;4916579;29;20044;-73
2021/12/29 00:11:07;;;;;;;16.38;6.57;;;;;;;7.57;96.27;98611.16;4916850;29;20083;-74
2021/12/29 00:13:33;;;;;;;13.43;6.25;;;;;;;7.55;95.90;98613.25;4916832;29;20047;-76
2021/12/29 00:16:03;;;;;;;13.90;6.03;;;;;;;7.52;95.90;98624.44;4916875;29;20044;-75
2021/12/29 00:18:31;;;;;;;16.67;6.32;;;;;;;7.51;96.30;98622.81;4900575;29;20036;-75
2021/12/29 00:20:58;;;;;;;13.70;6.10;;;;;;;7.52;96.25;98627.13;4920228;29;20043;-74
2021/12/29 00:23:23;;;;;;;11.23;4.93;;;;;;;7.53;96.02;98616.16;4920076;29;20028;-76
2021/12/29 00:25:48;;;;;;;12.43;5.60;;;;;;;7.50;96.36;98622.00;4920057;29;20039;-75
2021/12/29 00:28:14;;;;;;;12.48;5.25;;;;;;;7.51;96.21;98625.50;4919984;29;20041;-73
2021/12/29 00:30:41;;;;;;;13.13;4.43;;;;;;;7.49;96.07;98625.72;4920373;29;20095;-74
2021/12/29 00:33:06;;;;;;;15.23;4.90;;;;;;;7.55;96.16;98632.00;4920311;29;20128;-74
2021/12/29 00:35:34;;;;;;;13.02;5.40;;;;;;;7.52;96.29;98635.19;4920221;29;20495;-75
2021/12/29 00:38:02;;;;;;;13.38;4.53;;;;;;;7.50;96.28;98643.44;4920126;29;20028;-75
2021/12/29 00:40:27;;;;;;;11.88;4.72;;;;;;;7.50;96.04;98656.03;4920532;29;20119;-74
2021/12/29 00:42:52;;;;;;;11.18;4.35;;;;;;;7.51;95.96;98671.06;4920362;29;20160;-74
2021/12/29 00:45:18;;;;;;;11.87;4.80;;;;;;;7.51;95.90;98679.91;4919553;29;20096;-76
2021/12/29 00:47:43;;;;;;;10.07;4.80;;;;;;;7.54;96.12;98689.34;4920054;29;20288;-76
2021/12/29 00:50:15;;;;;;;16.73;5.55;;;;;;;7.50;95.89;98693.53;4919882;29;20040;-74
2021/12/29 00:52:40;;;;;;;13.20;4.78;;;;;;;7.50;96.52;98709.63;4920007;29;20134;-74
2021/12/29 00:55:07;;;;;;;11.55;5.05;;;;;;;7.49;96.23;98707.97;4919882;29;20024;-76
2021/12/29 00:57:32;;;;;;;10.13;3.72;;;;;;;7.50;96.09;98728.38;4919767;29;20091;-74
2021/12/29 00:59:59;;;;;;;8.43;3.45;;;;;;;7.50;96.17;98726.50;4919669;29;20115;-74
2021/12/29 01:02:25;;;;;;;15.35;4.32;;;;;;;7.50;95.86;98734.56;4919656;29;20035;-77
2021/12/29 01:04:50;;;;;;;10.30;3.60;;;;;;;7.50;95.93;98728.38;4919678;29;20036;-76
2021/12/29 01:07:16;;;;;;;11.45;4.75;;;;;;;7.52;96.02;98734.34;4919634;29;20115;-75
2021/12/29 01:09:42;;;;;;;12.63;5.07;;;;;;;7.48;95.93;98751.91;4919548;29;20040;-77
2021/12/29 01:12:08;;;;;;;;;;;;;;;7.47;96.07;98756.44;4920440;29;20463;-75
2021/12/29 01:14:34;;;;;;;8.02;3.60;;;;;;;7.47;95.87;98751.09;4919376;29;20382;-76
2021/12/29 01:16:59;;;;;;;16.58;4.55;;;;;;;7.45;95.81;98771.09;4920451;29;20132;-77
2021/12/29 01:19:27;;;;;;;9.50;3.53;;;;;;;7.45;95.82;98781.81;4920690;29;20039;-79
2021/12/29 01:21:56;;;;;;;10.27;3.80;;;;;;;7.44;96.15;98789.03;4920010;29;20032;-76
2021/12/29 01:24:22;;;;;;;8.23;3.00;;;;;;;7.45;96.33;98776.47;4919416;29;20032;-76
2021/12/29 01:26:48;;;;;;;11.70;3.50;;;;;;;7.44;96.09;98790.91;4919614;29;20036;-76
2021/12/29 01:29:14;;;;;;;10.52;3.33;;;;;;;7.43;95.99;98794.63;4919077;29;20495;-75
2021/12/29 01:31:40;;;;;;;10.02;3.30;;;;;;;7.44;95.87;98806.97;4919248;29;20028;-75
2021/12/29 01:34:06;;;;;;;10.57;3.40;;;;;;;7.42;95.86;98806.38;4919072;29;20032;-76
2021/12/29 01:36:33;;;;;;;7.75;2.80;;;;;;;7.41;96.10;98818.97;4919184;29;20387;-75
2021/12/29 01:39:00;;;;;;;10.10;3.25;;;;;;;7.39;95.76;98821.03;4919313;29;20032;-77
2021/12/29 01:41:25;;;;;;;11.55;4.00;;;;;;;7.43;95.78;98829.47;4919455;29;20032;-79
2021/12/29 01:43:51;;;;;;;9.40;3.10;;;;;;;7.41;96.07;98828.84;4918779;29;20059;-77
2021/12/29 01:46:18;;;;;;;10.70;4.13;;;;;;;7.41;96.06;98827.00;4919365;29;20531;-77
2021/12/29 01:48:43;;;;;;;9.13;3.17;;;;;;;7.39;96.10;98837.13;4919288;29;20099;-78
2021/12/29 01:51:09;;;;;;;8.20;3.17;;;;;;;7.40;95.61;98836.09;4922214;29;20040;-80
2021/12/29 01:53:35;;;;;;;8.27;3.40;;;;;;;7.41;95.94;98844.94;4921298;29;20486;-77
2021/12/29 01:56:01;;;;;;;7.20;2.95;;;;;;;7.46;95.85;98850.47;4922170;29;20078;-79
2021/12/29 01:58:29;;;;;;;8.32;3.35;;;;;;;7.42;95.91;98846.56;4921471;29;20391;-79
2021/12/29 02:00:57;;;;;;;12.15;3.75;;;;;;;7.44;95.97;98857.91;4921718;29;20032;-77
2021/12/29 02:03:22;;;;;;;7.95;3.03;;;;;;;7.43;95.94;98861.63;4920421;29;20095;-78
2021/12/29 02:05:48;;;;;;;8.85;3.20;;;;;;;7.44;96.09;98882.84;4919950;29;20115;-78
2021/12/29 02:08:21;;;;;;;9.15;3.72;;;;;;;7.45;95.71;98886.34;4919466;29;20428;-78
2021/12/29 02:10:47;;;;;;;8.75;3.35;;;;;;;7.45;96.14;98889.84;4902467;29;20036;-78
2021/12/29 02:13:14;;;;;;;7.93;2.90;;;;;;;7.47;96.10;98886.94;4919229;29;20095;-79
2021/12/29 02:15:40;;;;;;;10.50;3.33;;;;;;;7.46;96.06;98887.97;4919141;29;20391;-78
2021/12/29 02:18:13;;;;;;;;;;;;;;;7.47;95.47;98885.06;4919798;29;20043;-78
2021/12/29 02:20:39;;;;;;;8.63;3.58;;;;;;;7.50;95.48;98899.91;4919271;29;19910;-78
2021/12/29 02:23:16;;;;;;;11.38;4.47;;;;;;;7.47;95.19;98892.28;4919559;29;20028;-81
2021/12/29 02:25:49;;;;;;;8.57;3.10;;;;;;;7.53;95.38;98900.25;4902635;29;20391;-78
2021/12/29 02:28:17;;;;;;;13.60;3.65;;;;;;;7.49;95.71;98904.44;4902701;29;20036;-78
2021/12/29 02:30:45;;;;;;;12.45;4.22;;;;;;;7.50;95.71;98905.25;4919807;29;20096;-80
2021/12/29 02:33:13;;;;;;;12.52;4.10;;;;;;;7.48;95.67;98892.06;4920469;29;20040;-77
2021/12/29 02:35:41;;;;;;;11.43;3.90;;;;;;;7.46;95.42;98907.56;4919705;29;20039;-78
2021/12/29 02:38:10;;;;;;;11.48;3.72;;;;;;;7.46;95.71;98901.38;4920595;29;20028;-78
2021/12/29 02:40:36;;;;;;;9.75;4.10;;;;;;;7.47;95.58;98905.69;4921226;29;20028;-79
2021/12/29 02:43:01;;;;;;;9.60;2.92;;;;;;;7.46;95.82;98920.13;4920872;29;20028;-78
2021/12/29 02:45:27;;;;;;;9.23;3.17;;;;;;;7.47;95.65;98921.78;4919724;29;20048;-78
2021/12/29 02:47:52;;;;;;;9.88;3.80;;;;;;;7.47;95.42;98938.69;4919293;29;20040;-77
2021/12/29 02:50:18;;;;;;;10.37;3.47;;;;;;;7.47;94.96;98945.91;4918410;29;20107;-77
2021/12/29 02:52:45;;;;;;;8.23;3.30;;;;;;;7.47;95.52;98948.56;4918514;29;20264;-78
2021/12/29 02:55:11;;;;;;;8.35;3.80;;;;;;;7.49;95.33;98947.31;4918159;29;20036;-77
2021/12/29 02:57:36;;;;;;;12.40;3.33;;;;;;;7.50;95.25;98954.31;4901379;29;20167;-78
2021/12/29 03:00:04;;;;;;;10.80;3.47;;;;;;;7.50;95.59;98959.69;4919237;29;20398;-78
2021/12/29 03:02:29;;;;;;;9.98;3.33;;;;;;;7.51;95.27;98960.50;4918920;29;20032;-78
2021/12/29 03:04:57;;;;;;;8.40;3.00;;;;;;;7.53;95.38;98974.47;4918768;29;20028;-78
2021/12/29 03:07:22;;;;;;;7.68;2.60;;;;;;;7.50;95.57;98972.25;4919496;29;20272;-77
2021/12/29 03:09:48;;;;;;;8.40;3.17;;;;;;;7.48;95.33;98980.50;4918831;29;20055;-78
2021/12/29 03:12:13;;;;;;;8.52;2.67;;;;;;;7.47;95.57;98986.91;4919437;29;20044;-78
2021/12/29 03:14:49;;;;;;;10.95;3.42;;;;;;;7.47;95.52;98981.56;4920811;29;20055;-78
2021/12/29 03:17:14;;;;;;;13.60;3.70;;;;;;;7.46;95.58;98976.41;4919506;29;20136;-77
2021/12/29 03:19:40;;;;;;;7.10;2.80;;;;;;;7.48;95.37;98966.28;4917903;29;20479;-78
2021/12/29 03:22:05;;;;;;;8.90;3.00;;;;;;;7.47;95.00;98964.66;4917265;29;20778;-77
2021/12/29 03:24:30;;;;;;;10.48;3.63;;;;;;;7.45;95.46;98969.41;4902639;29;20043;-77
2021/12/29 03:26:56;;;;;;;10.40;3.70;;;;;;;7.48;95.59;98972.47;4917262;29;20067;-78
2021/12/29 03:29:21;;;;;;;12.47;4.10;;;;;;;7.46;95.59;98976.41;4917761;29;20043;-77
2021/12/29 03:31:47;;;;;;;13.27;3.95;;;;;;;7.45;95.49;98980.13;4917605;29;20032;-78
2021/12/29 03:34:12;;;;;;;11.52;3.47;;;;;;;7.45;95.38;98994.34;4917084;29;20036;-76
2021/12/29 03:36:37;;;;;;;16.92;4.28;;;;;;;7.46;95.27;98993.31;4917137;29;20059;-77
2021/12/29 03:39:03;;;;;;;13.20;3.80;;;;;;;7.46;95.45;98984.44;4900097;29;20043;-76
2021/12/29 03:41:29;;;;;;;13.35;4.18;;;;;;;7.45;95.08;98982.81;4917413;29;20036;-76
2021/12/29 03:43:54;;;;;;;12.63;4.00;;;;;;;7.50;95.36;99004.41;4918390;29;20047;-77
2021/12/29 03:46:19;;;;;;;10.77;3.83;;;;;;;7.47;95.66;98996.81;4919548;29;20036;-77
2021/12/29 03:48:46;;;;;;;7.80;3.57;;;;;;;7.46;95.63;98997.84;4917178;29;20036;-78
2021/12/29 03:51:12;;;;;;;11.00;4.68;;;;;;;7.42;95.74;98997.47;4900455;29;20256;-77
2021/12/29 03:53:38;;;;;;;;;;;;;;;7.45;96.12;99009.59;4918804;29;20066;-77
2021/12/29 03:56:04;;;;;;;10.63;3.88;;;;;;;7.46;95.62;99013.94;4920982;29;19962;-78
2021/12/29 03:58:30;;;;;;;11.82;4.22;;;;;;;7.43;95.89;99025.91;4920951;29;20485;-77
2021/12/29 04:00:58;;;;;;;10.02;4.30;;;;;;;7.43;96.11;99030.44;4920745;29;20103;-77
2021/12/29 04:03:24;;;;;;;11.00;3.95;;;;;;;7.44;95.95;99032.91;4920589;29;20096;-77
2021/12/29 04:05:49;;;;;;;15.20;5.20;;;;;;;7.42;96.16;99037.66;4920809;29;20382;-76
2021/12/29 04:08:15;;;;;;;13.30;3.92;;;;;;;7.42;96.03;99052.91;4920689;29;20340;-76
2021/12/29 04:10:41;;;;;;;12.50;4.05;;;;;;;7.42;95.85;99044.88;4920375;29;20024;-77
2021/12/29 04:13:06;;;;;;;14.30;4.95;;;;;;;7.43;95.99;99050.03;4920476;29;20482;-77
2021/12/29 04:15:33;;;;;;;12.77;4.13;;;;;;;7.40;95.93;99055.81;4902958;29;20534;-77
2021/12/29 04:18:02;;;;;;;13.23;4.55;;;;;;;7.40;95.81;99063.84;4920885;29;20092;-76
2021/12/29 04:23:16;;;;;;;13.52;4.25;;;;;;;7.43;95.59;99070.63;4920103;29;20543;-76
2021/12/29 04:25:46;;;;;;;11.48;3.88;;;;;;;7.41;95.59;99075.38;4920277;29;20035;-76
2021/12/29 04:28:15;;;;;;;10.45;3.33;;;;;;;7.39;95.90;99075.59;4903525;29;20488;-76
2021/12/29 04:30:42;;;;;;;15.68;4.60;;;;;;;7.41;95.71;99080.75;4919973;29;20028;-76
2021/12/29 04:33:07;;;;;;;10.00;4.75;;;;;;;7.37;95.75;99091.06;4919845;29;20111;-76
2021/12/29 04:35:33;;;;;;;14.27;3.63;;;;;;;7.35;95.36;99086.97;4920147;29;20119;-75
2021/12/29 04:37:59;;;;;;;12.98;3.65;;;;;;;7.35;95.28;99084.28;4919849;29;20039;-76
2021/12/29 04:40:25;;;;;;;8.80;2.90;;;;;;;7.28;95.00;99092.38;4919846;29;20032;-76
2021/12/29 04:42:50;;;;;;;;;;;;;;;7.25;94.95;99093.63;4920463;29;20035;-77
2021/12/29 04:45:16;;;;;;;5.57;1.88;;;;;;;7.24;94.89;99100.03;4919680;29;20013;-76
2021/12/29 04:47:45;;;;;;;6.60;2.28;;;;;;;7.22;94.77;99094.06;4919707;29;20040;-76
2021/12/29 04:50:24;;;;;;;5.88;2.55;;;;;;;7.22;94.74;99112.81;4919883;29;20036;-76
2021/12/29 04:52:50;;;;;;;6.97;2.58;;;;;;;7.22;95.17;99112.00;4919644;29;20111;-76
2021/12/29 04:55:15;;;;;;;9.80;3.42;;;;;;;7.22;94.95;99120.84;4919915;29;20040;-76
2021/12/29 04:57:41;;;;;;;9.80;3.73;;;;;;;7.23;95.27;99106.44;4919463;29;20032;-76
2021/12/29 05:00:07;;;;;;;15.48;4.03;;;;;;;7.26;94.97;99119.41;4919615;29;20039;-75
2021/12/29 05:02:32;;;;;;;;;;;;;;;7.27;95.37;99120.22;4919831;29;20091;-76
2021/12/29 05:05:01;;;;;;;12.98;3.72;;;;;;;7.26;95.41;99118.56;4919179;29;19918;-76
2021/12/29 05:10:11;;;;;;;9.77;3.58;;;;;;;7.27;95.19;99125.56;4919255;29;20039;-77
2021/12/29 05:12:37;;;;;;;12.00;4.47;;;;;;;7.26;95.48;99127.44;4919244;29;20044;-75
2021/12/29 05:15:04;;;;;;;10.27;3.25;;;;;;;7.29;95.42;99123.50;4902378;29;20052;-75
2021/12/29 05:17:29;;;;;;;12.55;4.57;;;;;;;7.27;95.43;99129.06;4919021;29;20035;-75
2021/12/29 05:19:54;;;;;;;9.00;4.18;;;;;;;7.28;95.35;99127.22;4919366;29;20036;-74
2021/12/29 05:22:21;;;;;;;10.07;4.18;;;;;;;7.27;95.12;99141.66;4902268;29;20044;-74
2021/12/29 05:24:46;;;;;;;12.10;3.25;;;;;;;7.24;95.54;99152.78;4919222;29;20024;-74
2021/12/29 05:27:12;;;;;;;7.55;2.25;;;;;;;7.23;95.32;99160.00;4919156;29;20490;-74
2021/12/29 05:29:38;;;;;;;10.60;3.63;;;;;;;7.25;94.77;99167.84;4918774;29;20032;-74
2021/12/29 05:32:04;;;;;;;10.65;3.05;;;;;;;7.34;95.31;99177.28;4902546;29;20100;-75
2021/12/29 05:34:29;;;;;;;10.07;4.22;;;;;;;7.37;94.65;99173.31;4919062;29;20047;-75
2021/12/29 05:36:54;;;;;;;8.00;3.20;;;;;;;7.31;94.92;99183.88;4918714;29;20111;-73
2021/12/29 05:39:23;;;;;;;10.07;3.33;;;;;;;7.30;94.93;99176.06;4919012;29;20383;-73
2021/12/29 05:41:48;;;;;;;9.57;3.20;;;;;;;7.27;94.81;99185.34;4918626;29;20283;-73
2021/12/29 05:44:13;;;;;;;10.53;3.83;;;;;;;7.27;95.77;99195.25;4918731;29;20052;-74
2021/12/29 05:46:39;;;;;;;8.75;3.38;;;;;;;7.27;94.94;99190.69;4901628;29;20291;-74
2021/12/29 05:49:04;;;;;;;10.75;4.00;;;;;;;7.27;95.00;99190.69;4918735;29;20036;-73
2021/12/29 05:51:30;;;;;;;11.80;3.30;;;;;;;7.25;95.16;99192.75;4918706;29;20064;-75
2021/12/29 05:53:55;;;;;;;10.98;4.13;;;;;;;7.27;95.56;99190.69;4918890;29;20126;-73
2021/12/29 05:56:20;;;;;;;11.27;3.83;;;;;;;7.26;95.46;99202.44;4918756;29;20038;-73
2021/12/29 05:58:46;;;;;;;9.23;3.28;;;;;;;7.24;95.52;99191.13;4918489;29;20044;-73
2021/12/29 06:01:11;;;;;;;15.17;3.57;;;;;;;7.22;95.37;99203.91;4918404;29;20112;-73
2021/12/29 06:03:38;;;;;;;8.50;2.80;;;;;;;7.18;95.66;99202.69;4918523;29;20759;-74
2021/12/29 06:06:04;;;;;;;8.35;3.35;;;;;;;7.20;95.21;99214.00;4918393;29;20264;-74
2021/12/29 06:08:29;;;;;;;14.93;3.85;;;;;;;7.17;95.41;99210.94;4917931;29;20069;-74
2021/12/29 06:10:55;;;;;;;8.57;2.40;;;;;;;7.12;95.55;99208.91;4917995;29;20032;-74
2021/12/29 06:13:21;;;;;;;8.55;2.85;;;;;;;7.13;95.83;99207.88;4917824;29;20044;-76
2021/12/29 06:15:46;;;;;;;5.82;2.10;;;;;;;7.09;95.79;99209.31;4917384;29;20486;-75
2021/12/29 06:18:12;;;;;;;6.40;2.20;;;;;;;7.07;95.61;99206.03;4917995;29;20036;-75
2021/12/29 06:20:38;;;;;;;5.53;2.05;;;;;;;7.07;95.69;99206.03;4918153;29;20039;-76
2021/12/29 06:23:05;;;;;;;4.93;1.80;;;;;;;7.09;96.05;99216.53;4900927;29;20036;-76
2021/12/29 06:25:33;;;;;;;8.15;3.00;;;;;;;7.10;95.99;99218.19;4918369;29;20047;-76
2021/12/29 06:27:58;;;;;;;7.55;2.63;;;;;;;7.11;96.63;99225.19;4918028;29;20028;-75
2021/12/29 06:30:24;;;;;;;6.68;2.40;;;;;;;7.13;96.51;99220.44;4918012;29;20055;-76
2021/12/29 06:32:49;;;;;;;8.37;2.63;;;;;;;7.23;95.97;99232.34;4918129;29;20040;-77
2021/12/29 06:35:15;;;;;;;10.85;3.08;;;;;;;7.18;95.88;99234.00;4917637;29;20088;-77
2021/12/29 06:37:41;;;;;;;8.40;3.20;;;;;;;7.17;96.59;99237.72;4917781;29;20475;-76
2021/12/29 06:40:09;;;;;;;9.27;3.60;;;;;;;7.20;96.52;99243.47;4917404;29;20032;-75
2021/12/29 06:42:34;;;;;;;15.23;4.25;;;;;;;7.24;96.12;99243.88;4917492;29;20390;-76
2021/12/29 06:45:00;;;;;;;10.55;4.05;;;;;;;7.24;96.22;99241.19;4917108;29;20044;-76
2021/12/29 06:47:26;;;;;;;13.73;4.90;;;;;;;7.28;96.45;99248.63;4918046;29;20040;-77
2021/12/29 06:49:51;;;;;;;;;;;;;;;7.27;96.64;99248.81;4918000;29;20377;-77
2021/12/29 06:52:17;;;;;;;10.88;4.18;;;;;;;7.27;96.45;99255.00;4917461;29;19940;-77
2021/12/29 06:54:44;;;;;;;13.15;4.85;;;;;;;7.28;96.72;99267.38;4900783;29;20051;-77
2021/12/29 06:57:10;;;;;;;15.43;5.40;;;;;;;7.29;96.27;99262.84;4917589;29;20032;-77
2021/12/29 06:59:35;;;;;;;14.57;5.32;;;;;;;7.30;96.82;99267.97;4917364;29;20036;-77
2021/12/29 07:02:00;;;;;;;14.88;5.72;;;;;;;7.30;96.55;99267.97;4918375;29;20453;-78
2021/12/29 07:04:26;;;;;;;19.60;6.23;;;;;;;7.29;96.21;99285.09;4917907;29;20132;-77
2021/12/29 07:06:53;;;;;;;14.95;5.63;;;;;;;7.28;96.58;99278.09;4917723;29;20324;-76
2021/12/29 07:09:20;;;;;;;17.40;5.13;;;;;;;7.28;96.33;99272.72;4917414;29;20475;-76
2021/12/29 07:11:46;;;;;;;18.48;6.68;;;;;;;7.31;96.30;99276.84;4901130;29;20059;-76
2021/12/29 07:14:11;;;;;;;15.82;6.03;;;;;;;7.29;96.75;99279.72;4917606;29;20090;-76
2021/12/29 07:16:43;;;;;;;18.17;7.10;;;;;;;7.29;96.11;99284.28;4917335;29;20042;-76
2021/12/29 07:19:09;;;;;;;18.95;6.43;;;;;;;7.35;96.54;99285.25;4900790;29;20047;-77
2021/12/29 07:21:34;;;;;;;17.88;6.45;;;;;;;7.32;96.60;99295.41;4900594;29;20501;-77
2021/12/29 07:24:00;;;;;;;20.20;7.22;;;;;;;7.34;96.32;99291.69;4916843;29;20036;-76
2021/12/29 07:26:25;;;;;;;22.83;7.15;;;;;;;7.33;96.40;99296.22;4917364;29;20032;-76
2021/12/29 07:28:51;;;;;;;18.58;6.47;;;;;;;7.32;96.24;99297.25;4917724;29;20486;-77
2021/12/29 07:31:19;;;;;;;28.90;6.72;;;;;;;7.34;96.64;99303.22;4900612;29;20032;-77
2021/12/29 07:33:45;;;;;;;16.50;6.68;;;;;;;7.37;96.16;99302.78;4916752;29;20535;-76
2021/12/29 07:36:11;;;;;;;17.42;6.80;;;;;;;7.44;96.34;99310.81;4916788;29;20031;-77
2021/12/29 07:38:38;;;;;;;21.60;6.60;;;;;;;7.42;96.67;99315.53;4916871;29;20075;-77
2021/12/29 07:41:03;;;;;;;15.02;6.25;;;;;;;7.44;96.26;99321.53;4916994;29;20028;-77
2021/12/29 07:43:28;;;;;;;18.63;6.07;;;;;;;7.38;96.63;99317.81;4917023;29;20087;-77
2021/12/29 07:45:55;;;;;;;17.63;7.22;;;;;;;7.40;96.32;99329.16;4899609;29;20304;-76
2021/12/29 07:48:25;;;;;;;;;;;;;;;7.42;96.61;99318.22;4900238;29;20103;-76
2021/12/29 07:50:51;;;;;;;23.00;7.70;;;;;;;7.46;96.85;99327.50;4916895;29;19915;-77
2021/12/29 07:53:16;;;;;;;16.83;5.95;;;;;;;7.40;96.37;99328.34;4916517;29;20398;-75
2021/12/29 07:55:42;;;;;;;24.63;8.15;;;;;;;7.33;95.90;99331.06;4917052;29;20115;-76
2021/12/29 07:58:07;;;;;;;22.05;7.65;;;;;;;7.34;96.17;99335.38;4916671;29;20123;-76
2021/12/29 08:00:33;;;;;;;23.00;8.02;;;;;;;7.38;96.55;99335.75;4916721;29;20044;-76
2021/12/29 08:02:58;;;;;;;24.75;8.60;;;;;;;7.40;96.21;99339.06;4917076;29;20039;-76
2021/12/29 08:05:23;;;;;;;20.33;7.65;;;;;;;7.32;96.21;99337.44;4916543;29;20033;-77
2021/12/29 08:07:49;;;;;;;28.83;7.72;;;;;;;7.53;96.31;99349.72;4916942;29;20045;-78
2021/12/29 08:10:15;;;;;;;29.35;8.07;;;;;;;7.48;96.26;99347.69;4916661;29;20044;-76
2021/12/29 08:12:41;;;;;;;23.23;6.80;;;;;;;7.48;96.03;99352.22;4916707;29;20036;-76
2021/12/29 08:15:07;;;;;;;22.90;8.68;;;;;;;7.41;96.05;99348.75;4916361;29;20048;-76
2021/12/29 08:17:32;;;;;;;;;;;;;;;7.38;96.09;99357.19;4916956;29;20118;-76
2021/12/29 08:20:01;;;;;;;30.05;7.70;;;;;;;7.35;95.66;99362.97;4917081;29;20363;-76
2021/12/29 08:22:26;;;;;;;23.77;8.00;;;;;;;7.33;95.68;99365.88;4916710;29;20460;-77
2021/12/29 08:24:52;;;;;;;24.30;7.95;;;;;;;7.32;96.01;99362.38;4917514;29;20032;-77
2021/12/29 08:27:17;;;;;;;24.93;8.40;;;;;;;7.35;96.05;99366.47;4900461;29;20040;-77
2021/12/29 08:29:42;;;;;;;29.90;9.20;;;;;;;7.32;95.82;99370.41;4917546;29;20253;-78
2021/12/29 08:32:08;;;;;;;23.77;8.27;;;;;;;7.34;95.96;99369.38;4917876;29;20047;-77
2021/12/29 08:34:33;;;;;;;23.13;9.27;;;;;;;7.47;96.32;99366.66;4916679;29;20261;-77
2021/12/29 08:36:59;;;;;;;24.25;8.25;;;;;;;7.44;96.39;99367.91;4916711;29;20059;-76
2021/12/29 08:39:25;;;;;;;22.07;8.40;;;;;;;7.51;95.98;99368.72;4918394;29;20024;-77
2021/12/29 08:41:51;;;;;;;28.70;9.55;;;;;;;7.47;95.83;99361.31;4903905;29;20287;-77
2021/12/29 08:44:17;;;;;;;25.48;8.30;;;;;;;7.41;95.72;99365.66;4899579;29;20396;-76
2021/12/29 08:46:43;;;;;;;28.17;9.38;;;;;;;7.38;95.86;99370.59;4901452;29;20052;-77
2021/12/29 08:49:09;;;;;;;25.83;9.20;;;;;;;7.39;96.40;99362.34;4901164;29;20424;-77
2021/12/29 08:51:34;;;;;;;27.87;8.23;;;;;;;7.34;95.94;99361.34;4900756;29;20035;-78
2021/12/29 08:53:59;;;;;;;27.43;9.40;;;;;;;7.33;95.95;99365.88;4900999;29;20609;-75
2021/12/29 08:56:26;;;;;;;31.38;10.65;;;;;;;7.32;96.08;99357.03;4900549;29;20296;-75
2021/12/29 08:58:53;;;;;;;23.20;8.80;;;;;;;7.31;96.15;99368.78;4900213;29;20120;-75
2021/12/29 09:01:20;;;;;;;31.23;10.15;;;;;;;7.35;96.20;99365.66;4900287;29;20039;-75
2021/12/29 09:03:48;;;;;;;28.20;9.05;;;;;;;7.38;95.97;99374.09;4900479;29;20032;-75
2021/12/29 09:06:15;;;;;;;22.70;8.35;;;;;;;7.39;95.93;99374.91;4900580;29;20123;-75
2021/12/29 09:08:41;;;;;;;32.33;8.35;;;;;;;7.40;96.30;99373.88;4900424;29;20032;-75
2021/12/29 09:11:07;;;;;;;27.63;9.52;;;;;;;7.32;95.15;99370.41;4900435;29;20424;-74
2021/12/29 09:13:33;;;;;;;27.70;9.18;;;;;;;7.36;95.90;99375.34;4900296;29;20119;-74
2021/12/29 09:15:58;;;;;;;25.92;8.95;;;;;;;7.35;95.84;99381.72;4900174;29;20374;-75
2021/12/29 09:18:25;;;;;;;23.27;9.90;;;;;;;7.35;95.45;99381.72;4900250;29;20037;-75
2021/12/29 09:20:51;;;;;;;24.30;9.75;;;;;;;7.32;95.74;99385.69;4900267;29;20036;-75
2021/12/29 09:23:16;;;;;;;23.83;8.68;;;;;;;7.45;96.32;99390.16;4900280;29;20464;-75
2021/12/29 09:25:45;;;;;;;29.23;9.65;;;;;;;7.36;95.33;99407.50;4900232;29;20064;-75
2021/12/29 09:28:14;;;;;;;43.10;11.38;;;;;;;7.36;95.53;99402.97;4899790;29;20452;-75
2021/12/29 09:30:42;;;;;;;28.27;9.65;;;;;;;7.31;95.27;99400.94;4899908;29;20067;-74
2021/12/29 09:33:07;;;;;;;23.63;9.07;;;;;;;7.32;95.32;99412.47;4899782;29;20084;-75
2021/12/29 09:35:33;;;;;;;24.48;9.60;;;;;;;7.32;95.66;99418.66;4899805;29;20033;-75
2021/12/29 09:37:58;;;;;;;33.58;9.65;;;;;;;7.33;95.81;99411.44;4900192;29;20032;-74
2021/12/29 09:40:24;;;;;;;25.95;9.82;;;;;;;7.32;95.29;99413.28;4900336;29;20500;-75
2021/12/29 09:42:51;;;;;;;;;;;;;;;7.35;95.02;99408.53;4900306;29;20068;-74
2021/12/29 09:45:18;;;;;;;30.00;8.90;;;;;;;7.35;95.11;99409.34;4913645;29;19942;-75
2021/12/29 09:47:43;;;;;;;32.30;10.48;;;;;;;7.35;95.16;99401.31;4918963;29;20036;-74
2021/12/29 09:50:15;;;;;;;20.30;7.65;;;;;;;7.38;95.65;99416.97;4918652;29;20379;-73
2021/12/29 09:52:41;;;;;;;25.08;8.07;;;;;;;7.34;94.96;99409.59;4918338;29;20040;-75
2021/12/29 09:55:10;;;;;;;25.42;7.28;;;;;;;7.33;95.36;99406.09;4901743;29;20028;-76
2021/12/29 09:57:45;;;;;;;20.58;8.60;;;;;;;7.34;95.06;99417.63;4901789;29;20032;-76
2021/12/29 10:00:20;;;;;;;24.60;7.53;;;;;;;7.50;95.57;99414.50;4918922;29;20048;-76
2021/12/29 10:02:47;;;;;;;21.52;7.18;;;;;;;7.42;95.11;99412.84;4918444;29;20036;-76
2021/12/29 10:05:12;;;;;;;21.75;7.05;;;;;;;7.41;95.03;99403.16;4918544;29;20028;-76
2021/12/29 10:07:38;;;;;;;22.20;6.97;;;;;;;7.45;95.63;99404.41;4918990;29;20410;-76
2021/12/29 10:10:18;;;;;;;20.73;7.30;;;;;;;7.43;94.82;99405.63;4918580;29;20264;-73
2021/12/29 10:12:44;;;;;;;23.85;8.40;;;;;;;7.42;94.95;99398.63;4918742;29;20055;-75
2021/12/29 10:15:10;;;;;;;19.65;7.45;;;;;;;7.44;95.45;99393.88;4917946;29;20043;-75
2021/12/29 10:17:35;;;;;;;21.23;7.32;;;;;;;7.41;94.48;99399.66;4918489;29;20098;-75
2021/12/29 10:20:08;;;;;;;21.80;7.57;;;;;;;7.40;94.53;99396.16;4918175;29;20032;-75
2021/12/29 10:22:34;;;;;;;22.60;8.02;;;;;;;7.38;94.49;99395.53;4918119;29;20123;-74
2021/12/29 10:25:07;;;;;;;19.58;7.22;;;;;;;7.37;94.19;99391.22;4918383;29;20127;-74
2021/12/29 10:27:33;;;;;;;21.45;7.18;;;;;;;7.36;94.65;99384.19;4917740;29;20058;-74
2021/12/29 10:29:59;;;;;;;21.55;7.28;;;;;;;7.38;93.81;99389.34;4918011;29;20436;-74
2021/12/29 10:32:25;;;;;;;20.73;7.43;;;;;;;7.40;94.67;99398.00;4918162;29;20497;-74
2021/12/29 10:34:54;;;;;;;21.45;7.22;;;;;;;7.48;93.80;99405.84;4917748;29;20036;-74
2021/12/29 10:37:23;;;;;;;15.45;6.72;;;;;;;7.48;94.48;99400.47;4917800;29;20040;-74
2021/12/29 10:39:51;;;;;;;15.75;5.82;;;;;;;7.47;93.23;99391.63;4901085;29;20376;-74
2021/12/29 10:42:16;;;;;;;14.27;5.35;;;;;;;7.52;93.17;99397.19;4917530;29;20032;-74
2021/12/29 10:44:46;;;;;;;22.27;5.60;;;;;;;7.55;93.35;99388.69;4917326;29;20060;-74
2021/12/29 10:47:23;;;;;;;16.95;5.78;;;;;;;7.56;92.95;99387.66;4917844;29;20028;-74
2021/12/29 10:49:51;;;;;;;16.45;5.93;;;;;;;7.56;92.71;99376.09;4917495;29;20103;-73
2021/12/29 10:52:28;;;;;;;18.58;5.90;;;;;;;7.58;93.47;99387.44;4917779;29;20036;-73
2021/12/29 10:54:53;;;;;;;12.82;5.60;;;;;;;7.62;92.57;99388.69;4917634;29;20086;-73
2021/12/29 10:57:18;;;;;;;12.87;5.07;;;;;;;7.59;92.66;99397.16;4917560;29;20111;-73
2021/12/29 10:59:44;;;;;;;13.10;5.65;;;;;;;7.58;92.34;99393.63;4917684;29;20439;-73
2021/12/29 11:02:10;;;;;;;12.90;5.00;;;;;;;7.58;93.13;99390.13;4917227;29;20039;-73
2021/12/29 11:04:36;;;;;;;13.77;4.65;;;;;;;7.57;91.89;99381.25;4917674;29;20111;-74
2021/12/29 11:07:03;;;;;;;12.40;4.47;;;;;;;7.60;92.16;99377.34;4917361;29;20380;-74
2021/12/29 11:09:34;;;;;;;13.95;5.30;;;;;;;7.59;91.47;99375.69;4917570;29;20051;-74
2021/12/29 11:12:08;;;;;;;12.20;4.78;;;;;;;7.63;90.79;99376.94;4900466;29;20038;-74
2021/12/29 11:14:34;;;;;;;15.75;5.35;;;;;;;7.67;91.98;99375.47;4900351;29;20039;-74
2021/12/29 11:17:07;;;;;;;;;;;;;;;7.68;91.38;99382.50;4900953;29;20112;-74
2021/12/29 11:19:33;;;;;;;10.25;4.28;;;;;;;7.71;91.14;99367.81;4917101;29;20390;-74
2021/12/29 11:22:15;;;;;;;10.82;4.13;;;;;;;7.78;91.45;99368.63;4916965;29;20040;-74
2021/12/29 11:24:43;;;;;;;9.93;4.65;;;;;;;7.73;91.04;99371.94;4916926;29;20036;-75
2021/12/29 11:27:16;;;;;;;12.30;4.38;;;;;;;7.76;90.93;99371.50;4916591;29;20124;-74
2021/12/29 11:29:51;;;;;;;12.38;5.40;;;;;;;7.77;90.13;99372.34;4917059;29;20040;-75
2021/12/29 11:32:27;;;;;;;9.75;4.55;;;;;;;7.79;90.29;99373.78;4917108;29;20036;-74
2021/12/29 11:35:18;;;;;;;11.88;4.45;;;;;;;7.82;90.15;99376.03;4916923;29;20629;-75
2021/12/29 11:37:47;;;;;;;10.50;4.03;;;;;;;7.86;90.13;99379.13;4917290;29;20471;-74
2021/12/29 11:40:15;;;;;;;11.13;4.53;;;;;;;7.87;90.61;99376.22;4917126;29;20056;-74